Time;durP1;ratioP1;P1;durP2;ratioP2;P2;SDS_P1;SDS_P2;PMS_P1;PMS_P2;Temp;Humidity;BMP_temperature;BMP_pressure;BME280_temperature;BME280_humidity;BME280_pressure;Samples;Min_cycle;Max_cycle;Signal;HPM_P1;HPM_P2
2023/11/20 00:01:57;;;;;;;0.53;0.53;;;8.00;99.90;;;;;;5075034;28;20469;-81
2023/11/20 00:04:25;;;;;;;0.90;0.73;;;7.90;99.90;;;;;;5075667;28;20444;-81
2023/11/20 00:06:52;;;;;;;0.77;0.43;;;7.90;99.90;;;;;;5075371;28;20444;-81
2023/11/20 00:09:18;;;;;;;0.60;0.60;;;7.90;99.90;;;;;;5075549;28;20467;-81
2023/11/20 00:11:45;;;;;;;0.77;0.67;;;7.90;99.90;;;;;;5075649;28;20519;-80
2023/11/20 00:14:13;;;;;;;1.00;0.43;;;8.00;99.90;;;;;;5076462;28;20819;-81
2023/11/20 00:16:40;;;;;;;3.50;0.60;;;8.10;99.90;;;;;;5075680;28;20563;-81
2023/11/20 00:19:10;;;;;;;4.43;0.87;;;8.00;99.90;;;;;;5075781;28;20504;-80
2023/11/20 00:21:40;;;;;;;0.80;0.77;;;8.10;99.90;;;;;;5076627;28;20465;-81
2023/11/20 00:24:08;;;;;;;0.33;0.33;;;8.10;99.90;;;;;;5076387;28;20453;-81
2023/11/20 00:26:35;;;;;;;0.50;0.33;;;8.10;99.90;;;;;;5076464;28;20445;-81
2023/11/20 00:29:04;;;;;;;0.40;0.40;;;8.10;99.90;;;;;;5077479;28;20451;-81
2023/11/20 00:31:31;;;;;;;3.27;0.47;;;8.10;99.90;;;;;;5079881;28;20559;-80
2023/11/20 00:33:58;;;;;;;0.80;0.40;;;8.10;99.90;;;;;;5080111;28;20443;-81
2023/11/20 00:36:25;;;;;;;0.30;0.30;;;8.00;99.90;;;;;;5080518;28;20485;-80
2023/11/20 00:38:53;;;;;;;0.40;0.40;;;8.10;99.90;;;;;;5080518;28;20765;-80
2023/11/20 00:41:20;;;;;;;0.40;0.40;;;8.00;99.90;;;;;;5080000;28;20998;-81
2023/11/20 00:43:47;;;;;;;0.40;0.40;;;8.00;99.90;;;;;;5079789;28;20428;-81
2023/11/20 00:46:14;;;;;;;2.00;0.40;;;7.90;99.90;;;;;;5080199;28;20441;-81
2023/11/20 00:48:41;;;;;;;0.73;0.40;;;8.00;99.90;;;;;;5080104;28;20561;-81
2023/11/20 00:51:07;;;;;;;0.30;0.30;;;8.00;99.90;;;;;;5080767;28;20792;-80
2023/11/20 00:53:34;;;;;;;1.53;0.37;;;8.00;99.90;;;;;;5079333;28;20459;-81
2023/11/20 00:56:02;;;;;;;2.20;0.40;;;8.00;99.90;;;;;;5080239;28;20440;-81
2023/11/20 00:58:29;;;;;;;1.83;0.47;;;8.10;99.90;;;;;;5080361;28;20441;-81
2023/11/20 01:00:58;;;;;;;3.23;0.40;;;8.20;99.90;;;;;;5080903;28;20437;-81
2023/11/20 01:03:24;;;;;;;0.90;0.90;;;8.20;99.90;;;;;;5080623;28;20503;-81
2023/11/20 01:05:52;;;;;;;0.40;0.40;;;8.20;99.90;;;;;;5080396;28;20787;-81
2023/11/20 01:08:19;;;;;;;1.43;0.30;;;8.30;99.90;;;;;;5080612;28;20487;-81
2023/11/20 01:10:46;;;;;;;0.33;0.33;;;8.30;99.90;;;;;;5080647;28;20446;-81
2023/11/20 01:13:14;;;;;;;0.87;0.37;;;8.40;99.90;;;;;;5080717;28;20491;-80
2023/11/20 01:15:40;;;;;;;2.30;0.50;;;8.40;99.90;;;;;;5079621;28;20456;-81
2023/11/20 01:18:07;;;;;;;1.57;0.90;;;8.40;99.90;;;;;;5079908;28;20483;-81
2023/11/20 01:20:34;;;;;;;0.30;0.30;;;8.50;99.90;;;;;;5079244;28;20888;-81
2023/11/20 01:23:01;;;;;;;11.23;1.10;;;8.60;99.90;;;;;;5078962;28;20473;-81
2023/11/20 01:25:31;;;;;;;1.03;0.50;;;8.60;99.90;;;;;;5079277;28;20445;-81
2023/11/20 01:27:58;;;;;;;0.50;0.43;;;8.70;99.90;;;;;;5078961;28;20506;-80
2023/11/20 01:30:27;;;;;;;1.53;0.40;;;8.70;99.90;;;;;;5078453;28;20869;-81
2023/11/20 01:32:53;;;;;;;0.33;0.30;;;8.70;99.90;;;;;;5078632;28;20823;-81
2023/11/20 01:35:20;;;;;;;1.50;0.60;;;8.70;99.90;;;;;;5078390;28;20453;-81
2023/11/20 01:37:47;;;;;;;0.40;0.40;;;8.70;99.90;;;;;;5078264;28;20677;-81
2023/11/20 01:40:14;;;;;;;0.97;0.30;;;8.80;99.90;;;;;;5077190;28;20964;-81
2023/11/20 01:42:41;;;;;;;0.40;0.40;;;8.80;99.90;;;;;;5078005;28;20481;-81
2023/11/20 01:45:08;;;;;;;0.30;0.30;;;8.80;99.90;;;;;;5078266;28;20479;-81
2023/11/20 01:47:37;;;;;;;0.40;0.40;;;8.80;99.90;;;;;;5077880;28;20441;-81
2023/11/20 01:50:05;;;;;;;4.17;1.20;;;8.90;99.90;;;;;;5077979;28;20468;-81
2023/11/20 01:52:33;;;;;;;0.90;0.50;;;8.90;99.90;;;;;;5077885;28;20473;-81
2023/11/20 01:54:59;;;;;;;0.40;0.40;;;8.90;99.90;;;;;;5077025;28;20452;-81
2023/11/20 01:57:26;;;;;;;0.77;0.40;;;8.90;99.90;;;;;;5077530;28;20481;-81
2023/11/20 01:59:53;;;;;;;2.00;0.87;;;8.90;99.90;;;;;;5077371;28;20456;-81
2023/11/20 02:02:20;;;;;;;1.63;0.40;;;8.90;99.90;;;;;;5076956;28;20465;-81
2023/11/20 02:04:51;;;;;;;0.40;0.37;;;8.90;99.90;;;;;;5076477;28;21012;-81
2023/11/20 02:07:18;;;;;;;0.40;0.30;;;8.90;99.90;;;;;;5076743;28;20425;-81
2023/11/20 02:09:45;;;;;;;0.40;0.40;;;8.90;99.90;;;;;;5076336;28;20449;-81
2023/11/20 02:12:12;;;;;;;4.70;0.40;;;8.90;99.90;;;;;;5076528;28;20577;-81
2023/11/20 02:14:39;;;;;;;0.50;0.43;;;8.90;99.90;;;;;;5076006;28;20445;-81
2023/11/20 02:17:06;;;;;;;0.40;0.33;;;8.90;99.90;;;;;;5075504;28;20560;-81
2023/11/20 02:19:33;;;;;;;0.30;0.30;;;8.90;99.90;;;;;;5076223;28;20847;-81
2023/11/20 02:22:01;;;;;;;0.30;0.30;;;9.00;99.90;;;;;;5076046;28;20469;-81
2023/11/20 02:24:28;;;;;;;0.60;0.50;;;8.90;99.90;;;;;;5076613;28;20441;-81
2023/11/20 02:27:08;;;;;;;0.70;0.40;;;9.00;99.90;;;;;;5076308;28;20441;-81
2023/11/20 02:29:46;;;;;;;0.30;0.30;;;9.00;99.90;;;;;;5078973;28;20431;-81
2023/11/20 02:32:13;;;;;;;0.77;0.47;;;9.00;99.90;;;;;;5079544;28;20546;-81
2023/11/20 02:34:40;;;;;;;0.90;0.60;;;9.00;99.90;;;;;;5079680;28;20465;-81
2023/11/20 02:37:08;;;;;;;0.40;0.30;;;9.00;99.90;;;;;;5078415;28;20492;-81
2023/11/20 02:39:35;;;;;;;0.30;0.30;;;9.00;99.90;;;;;;5078279;28;20453;-81
2023/11/20 02:42:03;;;;;;;0.40;0.30;;;9.00;99.90;;;;;;5078237;28;20504;-81
2023/11/20 02:44:29;;;;;;;0.40;0.30;;;9.00;99.90;;;;;;5078373;28;20906;-80
2023/11/20 02:46:57;;;;;;;0.60;0.60;;;9.10;99.90;;;;;;5078183;28;20441;-81
2023/11/20 02:49:24;;;;;;;0.67;0.37;;;9.10;99.90;;;;;;5078940;28;20950;-81
2023/11/20 02:51:51;;;;;;;2.50;1.00;;;9.20;99.90;;;;;;5079343;28;20453;-81
2023/11/20 02:54:18;;;;;;;0.70;0.40;;;9.20;99.90;;;;;;5079483;28;20446;-81
2023/11/20 02:56:44;;;;;;;3.43;1.23;;;9.20;99.90;;;;;;5079532;28;20475;-81
2023/11/20 02:59:11;;;;;;;1.03;0.40;;;9.20;99.90;;;;;;5079469;28;20444;-81
2023/11/20 03:01:38;;;;;;;0.73;0.70;;;9.20;99.90;;;;;;5079014;28;20544;-81
2023/11/20 03:04:06;;;;;;;0.40;0.30;;;9.20;99.90;;;;;;5079971;28;20440;-81
2023/11/20 03:06:33;;;;;;;1.60;0.83;;;9.20;99.90;;;;;;5079343;28;20455;-81
2023/11/20 03:09:00;;;;;;;0.83;0.47;;;9.20;99.90;;;;;;5079889;28;20956;-81
2023/11/20 03:11:26;;;;;;;7.23;0.53;;;9.30;99.90;;;;;;5079744;28;20460;-81
2023/11/20 03:13:53;;;;;;;2.93;0.83;;;9.30;99.90;;;;;;5080140;28;20445;-81
2023/11/20 03:16:21;;;;;;;0.40;0.40;;;9.30;99.90;;;;;;5079815;28;20945;-81
2023/11/20 03:18:48;;;;;;;0.60;0.53;;;9.30;99.90;;;;;;5078333;28;20481;-81
2023/11/20 03:21:16;;;;;;;2.73;0.80;;;9.30;99.90;;;;;;5077685;28;20475;-81
2023/11/20 03:23:43;;;;;;;2.10;0.60;;;9.30;99.90;;;;;;5079766;28;20444;-81
2023/11/20 03:26:09;;;;;;;0.60;0.60;;;9.20;99.90;;;;;;5079418;28;20445;-81
2023/11/20 03:28:38;;;;;;;0.40;0.40;;;9.20;99.90;;;;;;5080259;28;20808;-81
2023/11/20 03:31:05;;;;;;;1.90;0.43;;;9.20;99.90;;;;;;5080234;28;20502;-81
2023/11/20 03:33:32;;;;;;;0.50;0.40;;;9.10;99.90;;;;;;5080052;28;20447;-81
2023/11/20 03:35:59;;;;;;;3.03;0.40;;;9.10;99.90;;;;;;5080286;28;20452;-81
2023/11/20 03:38:27;;;;;;;3.33;0.40;;;9.00;99.90;;;;;;5080214;28;20484;-81
2023/11/20 03:40:54;;;;;;;1.00;0.60;;;9.10;99.90;;;;;;5079538;28;20444;-81
2023/11/20 03:43:21;;;;;;;2.67;1.23;;;9.00;99.90;;;;;;5078644;28;20477;-81
2023/11/20 03:45:48;;;;;;;2.03;0.60;;;9.10;99.90;;;;;;5078941;28;20477;-81
2023/11/20 03:48:15;;;;;;;5.33;0.50;;;9.10;99.90;;;;;;5078301;28;20786;-81
2023/11/20 03:50:42;;;;;;;0.30;0.30;;;9.10;99.90;;;;;;5078374;28;20444;-81
2023/11/20 03:53:08;;;;;;;0.30;0.30;;;9.20;99.90;;;;;;5081409;28;20860;-81
2023/11/20 03:55:36;;;;;;;0.50;0.40;;;9.20;99.90;;;;;;5080390;28;20436;-81
2023/11/20 03:58:03;;;;;;;0.70;0.40;;;9.10;99.90;;;;;;5080075;28;20843;-81
2023/11/20 04:00:30;;;;;;;3.03;0.83;;;9.20;99.90;;;;;;5080299;28;20435;-81
2023/11/20 04:02:58;;;;;;;1.07;0.53;;;9.20;99.90;;;;;;5080484;28;20464;-81
2023/11/20 04:05:25;;;;;;;1.70;0.40;;;9.20;99.90;;;;;;5084099;28;20455;-81
2023/11/20 04:07:52;;;;;;;0.40;0.40;;;9.20;99.90;;;;;;5084268;28;20433;-81
2023/11/20 04:10:19;;;;;;;0.30;0.30;;;9.20;99.90;;;;;;5084447;28;20451;-81
2023/11/20 04:12:47;;;;;;;1.40;0.50;;;9.30;99.90;;;;;;5085038;28;20460;-81
2023/11/20 04:15:14;;;;;;;0.40;0.33;;;9.20;99.90;;;;;;5084826;28;20448;-81
2023/11/20 04:17:40;;;;;;;0.80;0.40;;;9.20;99.90;;;;;;5085263;28;20480;-81
2023/11/20 04:20:08;;;;;;;1.80;0.30;;;9.20;99.90;;;;;;5085047;28;20432;-81
2023/11/20 04:22:35;;;;;;;0.70;0.30;;;9.10;99.90;;;;;;5084671;28;20479;-81
2023/11/20 04:25:02;;;;;;;4.40;0.50;;;9.10;99.90;;;;;;5084452;28;20459;-81
2023/11/20 04:27:29;;;;;;;0.30;0.30;;;9.00;99.90;;;;;;5084243;28;20475;-81
2023/11/20 04:29:57;;;;;;;0.30;0.30;;;9.00;99.90;;;;;;5084353;28;20926;-81
2023/11/20 04:32:24;;;;;;;0.80;0.50;;;9.00;99.90;;;;;;5084645;28;20456;-81
2023/11/20 04:34:51;;;;;;;1.43;0.50;;;8.90;99.90;;;;;;5086096;28;20449;-82
2023/11/20 04:37:18;;;;;;;0.30;0.30;;;8.90;99.90;;;;;;5086351;28;20453;-82
2023/11/20 04:39:46;;;;;;;7.30;0.73;;;9.00;99.90;;;;;;5086086;28;20800;-82
2023/11/20 04:42:13;;;;;;;0.50;0.30;;;9.00;99.90;;;;;;5085831;28;20488;-81
2023/11/20 04:44:40;;;;;;;3.43;1.00;;;9.00;99.90;;;;;;5085752;28;20436;-81
2023/11/20 04:47:08;;;;;;;0.40;0.30;;;9.00;99.90;;;;;;5086437;28;20449;-81
2023/11/20 04:49:35;;;;;;;0.60;0.40;;;9.10;99.90;;;;;;5086899;28;20448;-81
2023/11/20 04:52:02;;;;;;;2.43;0.40;;;9.20;99.90;;;;;;5086240;28;20457;-82
2023/11/20 04:54:28;;;;;;;2.00;0.40;;;9.20;99.90;;;;;;5087952;28;20823;-81
2023/11/20 04:56:58;;;;;;;1.57;0.40;;;9.30;99.90;;;;;;5085894;28;20449;-82
2023/11/20 04:59:25;;;;;;;0.60;0.60;;;9.30;99.90;;;;;;5087043;28;20481;-81
2023/11/20 05:01:52;;;;;;;6.50;0.60;;;9.30;99.90;;;;;;5086781;28;20471;-82
2023/11/20 05:04:21;;;;;;;0.50;0.50;;;9.30;99.90;;;;;;5086280;28;20452;-82
2023/11/20 05:06:48;;;;;;;0.30;0.30;;;9.30;99.90;;;;;;5086995;28;20449;-81
2023/11/20 05:09:16;;;;;;;1.27;0.50;;;9.30;99.90;;;;;;5085642;28;20518;-82
2023/11/20 05:11:45;;;;;;;1.77;0.50;;;9.40;99.90;;;;;;5085673;28;20983;-82
2023/11/20 05:14:12;;;;;;;0.40;0.30;;;9.50;99.90;;;;;;5086732;28;20491;-81
2023/11/20 05:16:39;;;;;;;0.30;0.30;;;9.40;99.90;;;;;;5087281;28;20455;-82
2023/11/20 05:19:05;;;;;;;2.17;0.43;;;9.40;99.90;;;;;;5087137;28;20846;-81
2023/11/20 05:21:34;;;;;;;3.30;0.40;;;9.40;99.90;;;;;;5086854;28;20467;-81
2023/11/20 05:24:00;;;;;;;0.40;0.30;;;9.50;99.90;;;;;;5086281;28;20444;-81
2023/11/20 05:26:27;;;;;;;0.50;0.50;;;9.40;99.90;;;;;;5085687;28;20472;-81
2023/11/20 05:28:54;;;;;;;0.30;0.30;;;9.50;99.90;;;;;;5085387;28;20797;-81
2023/11/20 05:31:22;;;;;;;0.50;0.40;;;9.40;99.90;;;;;;5085539;28;20495;-81
2023/11/20 05:33:48;;;;;;;1.17;0.43;;;9.40;99.90;;;;;;5086169;28;20445;-82
2023/11/20 05:36:15;;;;;;;0.30;0.30;;;9.50;99.90;;;;;;5086834;28;20455;-82
2023/11/20 05:38:43;;;;;;;1.60;0.47;;;9.40;99.90;;;;;;5086392;28;20836;-82
2023/11/20 05:41:10;;;;;;;2.20;0.70;;;9.50;99.90;;;;;;5085722;28;20914;-82
2023/11/20 05:43:37;;;;;;;0.40;0.40;;;9.50;99.90;;;;;;5110256;22;20550;-83
2023/11/20 05:46:05;;;;;;;0.40;0.30;;;9.50;99.90;;;;;;5095494;28;20953;-83
2023/11/20 05:48:32;;;;;;;0.97;0.47;;;9.50;99.90;;;;;;5095594;28;20436;-83
2023/11/20 05:50:59;;;;;;;0.50;0.30;;;9.50;99.90;;;;;;5095614;28;20439;-83
2023/11/20 05:53:26;;;;;;;0.70;0.57;;;9.50;99.90;;;;;;5095349;28;20436;-83
2023/11/20 05:55:54;;;;;;;0.37;0.33;;;9.50;99.90;;;;;;5095455;28;20436;-83
2023/11/20 05:58:21;;;;;;;1.83;0.50;;;9.40;99.90;;;;;;5095481;28;20483;-83
2023/11/20 06:00:48;;;;;;;8.53;0.40;;;9.40;99.90;;;;;;5095578;28;20444;-83
2023/11/20 06:03:14;;;;;;;0.40;0.30;;;9.50;99.90;;;;;;5094990;28;20490;-82
2023/11/20 06:05:41;;;;;;;2.33;1.03;;;9.40;99.90;;;;;;5095256;28;20435;-83
2023/11/20 06:08:08;;;;;;;0.30;0.20;;;9.40;99.90;;;;;;5095301;28;20447;-83
2023/11/20 06:10:35;;;;;;;3.33;0.93;;;9.50;99.90;;;;;;5095436;28;20804;-83
2023/11/20 06:13:03;;;;;;;1.13;0.93;;;9.50;99.90;;;;;;5095199;28;20475;-83
2023/11/20 06:15:30;;;;;;;0.60;0.40;;;9.60;99.90;;;;;;5094761;28;20460;-83
2023/11/20 06:17:57;;;;;;;3.63;0.60;;;9.50;99.90;;;;;;5095145;28;20471;-83
2023/11/20 06:20:24;;;;;;;0.47;0.47;;;10.00;99.90;;;;;;5095105;28;20448;-83
2023/11/20 06:22:51;;;;;;;7.90;1.03;;;9.50;99.90;;;;;;5094888;28;20436;-83
2023/11/20 06:25:18;;;;;;;0.57;0.30;;;9.50;99.90;;;;;;5094758;28;20833;-83
2023/11/20 06:27:44;;;;;;;0.77;0.47;;;9.50;99.90;;;;;;5094206;28;20440;-83
2023/11/20 06:30:13;;;;;;;0.40;0.40;;;9.50;99.90;;;;;;5094827;28;20807;-83
2023/11/20 06:32:40;;;;;;;0.40;0.30;;;9.50;99.90;;;;;;5097668;28;20489;-83
2023/11/20 06:35:07;;;;;;;0.97;0.30;;;9.50;99.90;;;;;;5094474;28;20963;-83
2023/11/20 06:37:34;;;;;;;3.20;0.47;;;9.50;99.90;;;;;;5095303;28;20447;-83
2023/11/20 06:40:01;;;;;;;0.30;0.30;;;9.40;99.90;;;;;;5094637;28;20515;-83
2023/11/20 06:42:29;;;;;;;0.50;0.40;;;9.50;99.90;;;;;;5094938;28;20493;-83
2023/11/20 06:44:55;;;;;;;0.30;0.30;;;9.40;99.90;;;;;;5094232;28;20490;-83
2023/11/20 06:47:24;;;;;;;2.00;0.30;;;9.50;99.90;;;;;;5118793;28;20430;-81
2023/11/20 06:49:50;;;;;;;5.80;0.50;;;9.50;99.90;;;;;;5094937;28;20447;-82
2023/11/20 06:52:17;;;;;;;0.90;0.50;;;9.50;99.90;;;;;;5094221;28;20440;-83
2023/11/20 06:54:45;;;;;;;1.00;0.50;;;9.50;99.90;;;;;;5094610;28;20514;-83
2023/11/20 06:57:11;;;;;;;1.03;0.30;;;9.50;99.90;;;;;;5094211;28;20444;-83
2023/11/20 06:59:38;;;;;;;1.93;0.40;;;9.60;99.90;;;;;;5094196;28;20983;-83
2023/11/20 07:02:06;;;;;;;0.50;0.50;;;9.50;99.90;;;;;;5094134;28;20455;-83
2023/11/20 07:04:37;;;;;;;2.73;0.50;;;9.60;99.90;;;;;;5094052;28;20827;-83
2023/11/20 07:07:04;;;;;;;5.40;0.80;;;9.60;99.90;;;;;;5094248;28;20539;-83
2023/11/20 07:09:31;;;;;;;0.40;0.30;;;9.60;99.90;;;;;;5094065;28;20446;-83
2023/11/20 07:11:58;;;;;;;1.77;0.43;;;9.60;99.90;;;;;;5094179;28;20440;-83
2023/11/20 07:14:25;;;;;;;0.30;0.30;;;9.50;99.90;;;;;;5094129;28;20521;-83
2023/11/20 07:16:52;;;;;;;1.27;0.40;;;9.60;99.90;;;;;;5093713;28;20440;-83
2023/11/20 07:19:18;;;;;;;0.77;0.73;;;9.70;99.90;;;;;;5094154;28;20494;-83
2023/11/20 07:21:46;;;;;;;4.57;0.50;;;9.70;99.90;;;;;;5093949;28;20440;-83
2023/11/20 07:24:14;;;;;;;0.70;0.40;;;9.70;99.90;;;;;;5093521;28;20470;-83
2023/11/20 07:26:41;;;;;;;1.93;0.40;;;9.70;99.90;;;;;;5094007;28;20479;-83
2023/11/20 07:29:08;;;;;;;1.73;0.80;;;9.80;99.90;;;;;;5093613;28;20449;-83
2023/11/20 07:31:37;;;;;;;0.37;0.30;;;9.80;99.90;;;;;;5093944;28;20480;-84
2023/11/20 07:34:06;;;;;;;0.30;0.30;;;9.80;99.90;;;;;;5095432;28;20460;-84
2023/11/20 07:36:33;;;;;;;1.80;0.40;;;10.00;99.90;;;;;;5094264;28;20436;-84
2023/11/20 07:39:01;;;;;;;0.40;0.30;;;9.90;99.90;;;;;;5097230;28;20507;-83
2023/11/20 07:41:28;;;;;;;0.40;0.40;;;9.80;99.90;;;;;;5098705;28;20521;-83
2023/11/20 07:43:55;;;;;;;1.13;0.40;;;9.80;99.90;;;;;;5098460;28;20520;-84
2023/11/20 07:46:22;;;;;;;0.70;0.40;;;9.90;99.90;;;;;;5097844;28;20916;-83
2023/11/20 07:48:50;;;;;;;0.37;0.37;;;9.90;99.90;;;;;;5098213;28;20438;-83
2023/11/20 07:51:18;;;;;;;0.50;0.30;;;9.90;99.90;;;;;;5097869;28;20448;-83
2023/11/20 07:53:45;;;;;;;4.13;0.60;;;9.90;99.90;;;;;;5097953;28;20839;-84
2023/11/20 07:56:13;;;;;;;0.90;0.50;;;9.80;99.90;;;;;;5098231;28;20806;-84
2023/11/20 07:58:40;;;;;;;0.40;0.40;;;9.80;99.90;;;;;;5098328;28;20859;-83
2023/11/20 08:01:07;;;;;;;1.40;0.50;;;9.80;99.90;;;;;;5098714;28;20452;-83
2023/11/20 08:03:34;;;;;;;3.70;0.60;;;9.90;99.90;;;;;;5097941;28;20959;-83
2023/11/20 08:06:01;;;;;;;0.80;0.60;;;9.90;99.90;;;;;;5097950;28;20447;-84
2023/11/20 08:08:28;;;;;;;1.90;0.70;;;9.90;99.90;;;;;;5098071;28;20446;-83
2023/11/20 08:10:54;;;;;;;0.40;0.40;;;10.00;99.90;;;;;;5097719;28;20424;-83
2023/11/20 08:13:22;;;;;;;0.37;0.30;;;10.00;99.90;;;;;;5097824;28;20469;-83
2023/11/20 08:15:49;;;;;;;0.60;0.60;;;10.00;99.90;;;;;;5097424;28;20936;-84
2023/11/20 08:18:16;;;;;;;1.60;0.63;;;10.00;99.90;;;;;;5097532;28;20447;-83
2023/11/20 08:20:43;;;;;;;0.30;0.30;;;10.00;99.90;;;;;;5097488;28;20807;-83
2023/11/20 08:23:09;;;;;;;1.13;0.40;;;9.90;99.90;;;;;;5097304;28;20440;-83
2023/11/20 08:25:36;;;;;;;1.27;0.40;;;9.90;99.90;;;;;;5097463;28;20467;-83
2023/11/20 08:28:03;;;;;;;1.00;0.40;;;9.90;99.90;;;;;;5097147;28;20443;-83
2023/11/20 08:30:33;;;;;;;4.23;0.50;;;9.90;99.90;;;;;;5098643;28;20451;-82
2023/11/20 08:33:00;;;;;;;0.40;0.30;;;10.00;99.90;;;;;;5097227;28;20838;-82
2023/11/20 08:35:27;;;;;;;1.13;0.50;;;10.00;99.90;;;;;;5097084;28;20467;-83
2023/11/20 08:37:54;;;;;;;0.50;0.50;;;10.10;99.90;;;;;;5097050;28;20444;-82
2023/11/20 08:40:21;;;;;;;3.70;0.40;;;10.00;99.90;;;;;;5097417;28;20487;-82
2023/11/20 08:42:48;;;;;;;0.40;0.37;;;10.00;99.90;;;;;;5097056;28;20452;-83
2023/11/20 08:45:15;;;;;;;0.63;0.30;;;10.10;99.90;;;;;;5097098;28;20488;-82
2023/11/20 08:47:43;;;;;;;2.30;0.40;;;10.10;99.90;;;;;;5097460;28;20447;-83
2023/11/20 08:50:12;;;;;;;0.30;0.30;;;10.10;99.90;;;;;;5096283;28;20534;-83
2023/11/20 08:52:38;;;;;;;1.17;0.50;;;10.10;99.90;;;;;;5096948;28;20436;-83
2023/11/20 08:55:07;;;;;;;0.87;0.87;;;10.10;99.90;;;;;;5099319;28;20490;-83
2023/11/20 08:57:35;;;;;;;1.07;0.40;;;10.10;99.90;;;;;;5119136;28;20439;-81
2023/11/20 09:00:02;;;;;;;1.17;0.50;;;10.30;99.90;;;;;;5100383;28;20493;-82
2023/11/20 09:02:29;;;;;;;0.33;0.30;;;10.20;99.90;;;;;;5098427;28;20450;-82
2023/11/20 09:04:57;;;;;;;0.30;0.30;;;10.40;99.90;;;;;;5097943;28;20452;-83
2023/11/20 09:07:24;;;;;;;1.93;0.50;;;10.50;99.90;;;;;;5097702;28;20825;-83
2023/11/20 09:09:50;;;;;;;0.47;0.30;;;10.50;99.90;;;;;;5096856;28;20440;-82
2023/11/20 09:12:17;;;;;;;0.30;0.30;;;10.60;99.90;;;;;;5096758;28;20436;-82
2023/11/20 09:14:44;;;;;;;0.47;0.40;;;10.60;99.90;;;;;;5096478;28;20467;-82
2023/11/20 09:17:13;;;;;;;2.00;0.50;;;10.60;99.90;;;;;;5098402;28;20829;-82
2023/11/20 09:19:39;;;;;;;0.40;0.40;;;10.70;99.90;;;;;;5096898;28;20473;-82
2023/11/20 09:22:07;;;;;;;3.90;0.40;;;10.80;99.90;;;;;;5096122;28;20448;-83
2023/11/20 09:24:35;;;;;;;0.60;0.50;;;11.10;99.90;;;;;;5095962;28;20475;-82
2023/11/20 09:27:02;;;;;;;0.60;0.40;;;11.40;99.90;;;;;;5096028;28;20497;-82
2023/11/20 09:29:28;;;;;;;2.20;0.83;;;11.50;99.90;;;;;;5095936;28;20446;-82
2023/11/20 09:31:55;;;;;;;1.03;0.73;;;11.70;99.90;;;;;;5095694;28;20943;-81
2023/11/20 09:34:23;;;;;;;8.10;1.00;;;11.60;99.90;;;;;;5096612;28;20455;-82
2023/11/20 09:36:50;;;;;;;0.50;0.40;;;11.90;99.90;;;;;;5097373;28;20447;-82
2023/11/20 09:39:19;;;;;;;0.50;0.40;;;11.70;99.90;;;;;;5095848;28;20476;-81
2023/11/20 09:41:46;;;;;;;0.30;0.30;;;11.80;99.90;;;;;;5095838;28;20493;-82
2023/11/20 09:44:13;;;;;;;3.87;0.50;;;11.70;99.90;;;;;;5096094;28;20491;-79
2023/11/20 09:46:44;;;;;;;7.90;0.60;;;11.70;99.90;;;;;;5095884;28;20993;-80
2023/11/20 09:49:16;;;;;;;5.13;0.40;;;11.80;99.90;;;;;;5096168;28;20801;-81
2023/11/20 09:51:46;;;;;;;0.30;0.30;;;11.70;99.90;;;;;;5095570;28;20432;-81
2023/11/20 09:54:14;;;;;;;4.20;0.50;;;11.50;99.90;;;;;;5095663;28;20504;-80
2023/11/20 09:56:42;;;;;;;0.40;0.40;;;11.50;99.90;;;;;;5095412;28;20444;-81
2023/11/20 09:59:11;;;;;;;3.70;0.50;;;11.40;99.90;;;;;;5095513;28;20480;-80
2023/11/20 10:01:40;;;;;;;4.57;0.63;;;11.60;99.90;;;;;;5094696;28;20432;-80
2023/11/20 10:04:09;;;;;;;1.87;0.40;;;11.80;99.90;;;;;;5095786;28;20475;-80
2023/11/20 10:06:40;;;;;;;0.40;0.40;;;11.80;99.90;;;;;;5095437;28;20448;-80
2023/11/20 10:09:09;;;;;;;0.70;0.40;;;11.90;99.90;;;;;;5095659;28;20523;-80
2023/11/20 10:11:38;;;;;;;0.80;0.40;;;11.90;99.90;;;;;;5095272;28;20450;-81
2023/11/20 10:14:06;;;;;;;4.33;0.50;;;11.90;99.90;;;;;;5095313;28;20464;-80
2023/11/20 10:16:35;;;;;;;1.67;0.50;;;11.90;99.90;;;;;;5095082;28;20451;-80
2023/11/20 10:19:02;;;;;;;0.70;0.40;;;11.90;99.90;;;;;;5094664;28;20432;-79
2023/11/20 10:21:29;;;;;;;1.07;0.40;;;11.90;99.90;;;;;;5094893;28;20974;-80
2023/11/20 10:23:57;;;;;;;0.87;0.40;;;11.80;99.90;;;;;;5094557;28;21083;-80
2023/11/20 10:26:24;;;;;;;3.77;2.07;;;11.80;99.90;;;;;;5095076;28;20483;-80
2023/11/20 10:28:51;;;;;;;1.13;1.13;;;11.90;99.90;;;;;;5095472;28;20443;-80
2023/11/20 10:31:19;;;;;;;0.40;0.40;;;12.00;99.90;;;;;;5094864;28;20943;-81
2023/11/20 10:33:46;;;;;;;2.30;0.67;;;12.30;99.90;;;;;;5095307;28;20456;-80
2023/11/20 10:36:14;;;;;;;1.17;0.40;;;12.40;99.90;;;;;;5094894;28;20810;-81
2023/11/20 10:38:42;;;;;;;10.10;1.27;;;12.40;99.90;;;;;;5095548;28;20448;-81
2023/11/20 10:41:10;;;;;;;0.80;0.30;;;12.40;99.90;;;;;;5095372;28;20484;-81
2023/11/20 10:43:38;;;;;;;1.27;0.40;;;12.40;99.90;;;;;;5094924;28;20468;-81
2023/11/20 10:46:05;;;;;;;0.93;0.30;;;12.30;99.90;;;;;;5095154;28;20435;-81
2023/11/20 10:48:34;;;;;;;1.00;0.40;;;12.40;99.90;;;;;;5095248;28;20948;-81
2023/11/20 10:51:07;;;;;;;0.73;0.40;;;12.30;99.90;;;;;;5095244;28;20440;-81
2023/11/20 10:53:38;;;;;;;0.40;0.30;;;12.30;99.90;;;;;;5095085;28;20424;-81
2023/11/20 10:56:07;;;;;;;0.50;0.30;;;12.20;99.90;;;;;;5095093;28;20580;-81
2023/11/20 10:58:35;;;;;;;3.63;0.80;;;12.20;99.90;;;;;;5095039;28;20443;-81
2023/11/20 11:01:03;;;;;;;0.40;0.40;;;12.10;99.90;;;;;;5095075;28;20484;-82
2023/11/20 11:03:30;;;;;;;3.40;0.47;;;12.00;99.90;;;;;;5095645;28;20448;-81
2023/11/20 11:06:03;;;;;;;1.87;0.50;;;11.90;99.90;;;;;;5114568;28;20420;-81
2023/11/20 11:08:31;;;;;;;0.30;0.30;;;11.70;99.90;;;;;;5111368;28;20458;-81
2023/11/20 11:10:58;;;;;;;0.77;0.30;;;11.50;99.90;;;;;;5095134;28;20447;-82
2023/11/20 11:13:32;;;;;;;0.40;0.30;;;11.30;99.90;;;;;;5093858;28;20432;-83
2023/11/20 11:16:00;;;;;;;0.30;0.30;;;11.10;99.90;;;;;;5094389;28;20428;-83
2023/11/20 11:18:30;;;;;;;0.30;0.30;;;10.90;99.90;;;;;;5094163;28;20477;-84
2023/11/20 11:20:58;;;;;;;2.10;0.40;;;10.70;99.90;;;;;;5094076;28;20495;-83
2023/11/20 11:23:30;;;;;;;1.67;0.33;;;10.50;99.90;;;;;;5093971;28;20523;-83
2023/11/20 11:26:10;;;;;;;1.13;0.40;;;10.30;99.90;;;;;;5093734;28;20431;-83
2023/11/20 11:28:38;;;;;;;0.53;0.40;;;10.30;99.90;;;;;;5094081;28;20424;-84
2023/11/20 11:31:06;;;;;;;0.40;0.37;;;10.30;99.90;;;;;;5093877;28;20485;-84
2023/11/20 11:34:01;;;;;;;0.40;0.30;;;10.50;99.90;;;;;;5093664;28;20974;-85
2023/11/20 11:36:34;;;;;;;0.40;0.30;;;10.70;99.90;;;;;;5093921;28;20432;-84
2023/11/20 11:39:10;;;;;;;0.30;0.30;;;10.90;99.90;;;;;;5093740;28;20914;-84
2023/11/20 11:41:46;;;;;;;0.40;0.40;;;11.00;99.90;;;;;;5094115;28;20467;-84
2023/11/20 11:44:18;;;;;;;0.40;0.40;;;11.20;99.90;;;;;;5093153;28;21004;-85
2023/11/20 11:46:49;;;;;;;0.50;0.40;;;11.30;99.90;;;;;;5118183;22;20560;-84
2023/11/20 11:49:19;;;;;;;1.03;0.40;;;11.30;99.90;;;;;;5096102;28;20804;-83
2023/11/20 11:51:49;;;;;;;0.40;0.30;;;11.10;99.90;;;;;;5096298;28;20428;-84
2023/11/20 11:54:18;;;;;;;0.50;0.40;;;10.90;99.90;;;;;;5096317;28;20927;-84
2023/11/20 11:57:00;;;;;;;0.50;0.40;;;10.70;99.90;;;;;;5096025;28;20458;-84
2023/11/20 11:59:38;;;;;;;0.30;0.30;;;10.50;99.90;;;;;;5095738;28;20507;-84
2023/11/20 12:02:05;;;;;;;0.40;0.30;;;10.40;99.90;;;;;;5096355;28;20420;-84
2023/11/20 12:05:00;;;;;;;0.80;0.33;;;10.30;99.90;;;;;;5096497;28;20949;-84
2023/11/20 12:07:56;;;;;;;0.90;0.50;;;10.40;99.90;;;;;;5096169;28;21055;-83
2023/11/20 12:10:49;;;;;;;0.30;0.30;;;10.60;99.90;;;;;;5095424;28;20929;-83
2023/11/20 12:13:16;;;;;;;0.43;0.43;;;10.60;99.90;;;;;;5095153;28;20433;-83
2023/11/20 12:15:46;;;;;;;1.73;0.33;;;10.70;99.90;;;;;;5095263;28;20452;-83
2023/11/20 12:18:15;;;;;;;0.60;0.30;;;10.70;99.90;;;;;;5095322;28;20463;-84
2023/11/20 12:20:43;;;;;;;0.30;0.30;;;10.70;99.90;;;;;;5095358;28;20521;-85
2023/11/20 12:23:20;;;;;;;1.90;0.40;;;10.80;99.90;;;;;;5095305;28;20845;-84
2023/11/20 12:25:49;;;;;;;0.43;0.43;;;10.90;99.90;;;;;;5098415;28;20493;-85
2023/11/20 12:28:16;;;;;;;0.30;0.20;;;11.00;99.90;;;;;;5098159;28;20448;-84
2023/11/20 12:30:44;;;;;;;0.67;0.50;;;11.00;99.90;;;;;;5098459;28;20436;-84
2023/11/20 12:33:10;;;;;;;0.30;0.30;;;11.00;99.90;;;;;;5098193;28;20484;-84
2023/11/20 12:35:38;;;;;;;1.07;0.87;;;11.00;99.90;;;;;;5100529;28;20451;-84
2023/11/20 12:38:05;;;;;;;13.63;0.90;;;11.10;99.90;;;;;;5102622;28;20872;-85
2023/11/20 12:40:32;;;;;;;0.40;0.30;;;11.10;99.90;;;;;;5100645;28;20486;-85
2023/11/20 12:43:00;;;;;;;4.23;0.47;;;11.10;99.90;;;;;;5103291;28;20459;-84
2023/11/20 12:45:27;;;;;;;0.30;0.30;;;11.10;99.90;;;;;;5103368;28;20966;-84
2023/11/20 12:47:54;;;;;;;0.37;0.37;;;11.10;99.90;;;;;;5102932;28;20475;-84
2023/11/20 12:50:24;;;;;;;0.80;0.40;;;11.10;99.90;;;;;;5103075;28;20485;-84
2023/11/20 12:52:51;;;;;;;0.40;0.30;;;11.00;99.90;;;;;;5102426;28;20443;-85
2023/11/20 12:55:18;;;;;;;0.30;0.30;;;10.90;99.90;;;;;;5101973;28;20450;-85
2023/11/20 12:57:45;;;;;;;0.30;0.30;;;10.90;99.90;;;;;;5101971;28;20870;-84